• Join FlightAware (Why Join?)
  • Login
  • US Flag 
06:26AM EDT


 

Airport Tracker/Info


-or-


 

Live Flight TrackerFlight Track Log ✈ CTL13 ✈ 21-Jun-2013 ✈ KBKL - KEYE

Flight Track Log - Related Links

Times and Time Zones

All times are in EDT time to prevent confusion due to time zone crossing. See the CTL13 flight status page for this flight to view local times or setup timezone preferences in your user account.

Time Position Orientation Groundspeed Altitude Reporting Facility
EDT Latitude Longitude Course Direction KTS MPH feet Rate Location/Type
06:37PM 41.5358 -81.6622 248° West 128 147 1,200  Level Cleveland Center
06:38PM 41.5778 -81.6408 21° North 145 167 2,200 840 Climbing Cleveland Center
06:39PM 41.6128 -81.6747 324° Northwest 147 169 3,000 360 Climbing Cleveland Center
06:40PM 41.6292 -81.7247 294° West 177 204 2,900 240 Descending Cleveland Center
06:42PM 41.6303 -81.8000 271° West 145 167 3,600 480 Climbing Cleveland Center
06:42PM 41.6236 -81.8469 259° West 149 171 4,000 180 Climbing Cleveland Center
06:43PM 41.3948 -81.9836 248° West  Level FlightAware Approximate
06:43PM 41.6167 -81.9081 261° West 168 193 4,000  Level Cleveland Center
06:44PM 41.6075 -81.9689 259° West 164 189 3,900  Descending Cleveland Center
06:46PM 41.5983 -82.0436 261° West 156 180 4,000  Climbing Cleveland Center
06:47PM 41.5892 -82.0989 258° West 163 188 3,900 -60 Descending Cleveland Center
06:47PM 41.5764 -82.1347 245° Southwest 157 181 3,900  Level Cleveland Center
06:49PM 41.5486 -82.1867 234° Southwest 154 177 3,900  Level Cleveland Center
06:50PM 41.5183 -82.2497 237° Southwest 156 180 4,000  Climbing Cleveland Center
06:51PM 41.5011 -82.2828 235° Southwest 155 178 4,000  Level Cleveland Center
06:52PM 41.4775 -82.3319 237° Southwest 156 180 4,000  Level Cleveland Center
06:54PM 41.4317 -82.4281 238° Southwest  Level FlightAware Approximate
07:01PM 41.2663 -82.7679 236° Southwest  Level FlightAware Approximate
07:02PM 41.2423 -82.8160 236° Southwest  Level FlightAware Approximate
07:03PM 41.2182 -82.8641 236° Southwest  Level FlightAware Approximate
07:04PM 41.1941 -82.9121 236° Southwest  Level FlightAware Approximate
07:05PM 41.1701 -82.9601 236° Southwest  Level FlightAware Approximate
07:06PM 41.1462 -83.0083 238° Southwest  Level FlightAware Approximate
07:07PM 41.1235 -83.0574 238° Southwest  Level FlightAware Approximate
07:08PM 41.1007 -83.1065 238° Southwest  Level FlightAware Approximate
07:08PM 41.0922 -83.1103 238° Southwest 156 180 4,000  Level Indianapolis Center
07:09PM 41.0779 -83.1555 238° Southwest  Level FlightAware Approximate
07:09PM 41.0667 -83.1572 234° Southwest 156 180 4,000  Level Indianapolis Center
07:10PM 41.0551 -83.2046 238° Southwest  Level FlightAware Approximate
07:10PM 41.0436 -83.2064 238° Southwest 156 180 4,000  Level Indianapolis Center
07:11PM 41.0323 -83.2535 238° Southwest  Level FlightAware Approximate
07:11PM 41.0194 -83.2533 236° Southwest 155 178 4,000  Level Indianapolis Center
07:12PM 41.0095 -83.3025 238° Southwest  Level FlightAware Approximate
07:12PM 40.9883 -83.3050 231° Southwest 153 176 4,000  Level Indianapolis Center
07:13PM 40.9867 -83.3514 238° Southwest  Level FlightAware Approximate
07:13PM 40.9636 -83.3525 235° Southwest 154 177 4,000  Level Indianapolis Center
07:14PM 40.9369 -83.4017 234° Southwest 155 178 4,000  Level Indianapolis Center
07:15PM 40.9122 -83.4483 235° Southwest 155 178 4,000  Level Indianapolis Center
07:16PM 40.8903 -83.4933 237° Southwest 154 177 4,000 -60 Level Indianapolis Center
07:17PM 40.8661 -83.5450 238° Southwest 154 177 3,900  Descending Indianapolis Center
07:18PM 40.8425 -83.5936 237° Southwest 156 180 4,000  Climbing Indianapolis Center
07:19PM 40.8192 -83.6417 237° Southwest 155 178 4,000  Level Indianapolis Center
07:20PM 40.7950 -83.6903 237° Southwest 155 178 4,000  Level Indianapolis Center
07:21PM 40.7694 -83.7389 235° Southwest 158 182 4,000  Level Indianapolis Center
07:22PM 40.7411 -83.7964 237° Southwest 159 183 4,000  Level Indianapolis Center
07:23PM 40.7156 -83.8425 234° Southwest 157 181 4,000  Level Indianapolis Center
07:24PM 40.6922 -83.8900 237° Southwest 156 180 4,000  Level Indianapolis Center
07:25PM 40.6700 -83.9381 239° Southwest 153 176 4,000 -60 Level Indianapolis Center
07:26PM 40.6475 -83.9853 238° Southwest 153 176 3,900  Descending Indianapolis Center
07:27PM 40.6236 -84.0331 237° Southwest 153 176 4,000  Climbing Indianapolis Center
07:29PM 40.6000 -84.0808 237° Southwest 154 177 4,000 -60 Level Indianapolis Center
07:30PM 40.5711 -84.1372 236° Southwest 155 178 3,900  Descending Indianapolis Center
07:30PM 40.5536 -84.1733 237° Southwest 157 181 4,000  Climbing Indianapolis Center
07:31PM 40.5306 -84.2278 241° Southwest 157 181 4,000 -60 Level Indianapolis Center
07:32PM 40.5086 -84.2689 235° Southwest 155 178 3,900 -60 Descending Indianapolis Center
07:33PM 40.4858 -84.3178 239° Southwest 153 176 3,900  Level Indianapolis Center
07:34PM 40.4633 -84.3642 237° Southwest 156 180 4,000  Climbing Indianapolis Center
07:35PM 40.4381 -84.4156 237° Southwest 154 177 3,900  Descending Indianapolis Center
07:36PM 40.4158 -84.4592 236° Southwest 156 180 4,000  Climbing Indianapolis Center
07:37PM 40.3908 -84.5106 237° Southwest 156 180 4,000  Level Indianapolis Center
07:38PM 40.3731 -84.5492 239° Southwest 153 176 4,000  Level Indianapolis Center
07:39PM 40.3583 -84.5794 237° Southwest 154 177 4,000  Level Indianapolis Center
07:40PM 40.3347 -84.6281 238° Southwest 155 178 4,000  Level Indianapolis Center
07:41PM 40.3097 -84.6786 237° Southwest 152 175 4,000  Level Indianapolis Center
07:42PM 40.2922 -84.7228 243° Southwest 154 177 4,000 -60 Level Indianapolis Center
07:43PM 40.2719 -84.7569 232° Southwest 154 177 3,900  Descending Indianapolis Center
07:44PM 40.2469 -84.8053 236° Southwest 156 180 4,000  Climbing Indianapolis Center
07:45PM 40.2217 -84.8564 237° Southwest 154 177 3,900 -60 Descending Indianapolis Center
07:45PM 40.2064 -84.8897 239° Southwest 153 176 3,900 60 Level Indianapolis Center
07:46PM 40.1922 -84.9158 235° Southwest 198 228 4,000  Climbing Indianapolis Center
07:47PM 40.1708 -84.9636 240° Southwest 156 180 3,900 -60 Descending Indianapolis Center
07:48PM 40.1486 -85.0103 238° Southwest 154 177 3,900  Level Indianapolis Center
07:49PM 40.1306 -85.0592 244° Southwest 152 175 3,900  Level Indianapolis Center
07:50PM 40.1156 -85.1247 253° West 154 177 4,000  Climbing Indianapolis Center
07:51PM 40.1036 -85.1783 254° West 154 177 3,900  Descending Indianapolis Center
07:52PM 40.0925 -85.2331 255° West 156 180 4,000  Climbing Indianapolis Center
07:53PM 40.0800 -85.2881 253° West 157 181 3,900  Descending Indianapolis Center
07:54PM 40.0664 -85.3394 251° West 154 177 4,000  Climbing Indianapolis Center
07:55PM 40.0536 -85.3942 253° West 155 178 4,000  Level Indianapolis Center
07:56PM 40.0378 -85.4586 252° West 155 178 4,000  Level Indianapolis Center
07:57PM 40.0247 -85.5128 253° West 156 180 4,000  Level Indianapolis Center
07:58PM 40.0117 -85.5667 252° West 157 181 4,000 -60 Level Indianapolis Center
07:59PM 39.9981 -85.6211 252° West 158 182 3,900 -60 Descending Indianapolis Center
08:00PM 39.9856 -85.6753 253° West 157 181 3,900  Level Indianapolis Center
08:01PM 39.9728 -85.7289 253° West 157 181 4,000  Climbing Indianapolis Center
08:03PM 39.9592 -85.7839 252° West 157 181 4,000  Level Indianapolis Center
08:04PM 39.9442 -85.8475 253° West 156 180 4,000  Level Indianapolis Center
08:05PM 39.9306 -85.9031 252° West 158 182 4,000 -300 Level Indianapolis Center
08:06PM 39.9167 -85.9594 252° West 160 184 3,400 -420 Descending Indianapolis Center
08:07PM 39.9028 -86.0169 253° West 164 189 3,200 -240 Descending Indianapolis Center
08:09PM 39.8781 -86.1114 245° Southwest  Level FlightAware Approximate
08:16PM 39.8167 -86.2833 245° Southwest  Level FlightAware Approximate